Terminal Aerodrome Forecast
Issued by NWS Paducah, KY

Home | Current Version | Previous Version | Text Only | Print | Product List | Glossary On
Versions: 1 2 3 4 5 6 7 8 9 10 11 12 13 14 15
000
FTUS43 KPAH 290020 AAA
TAFPAH
TAF AMD
KPAH 290020Z 2900/2924 04015G25KT P6SM VCTS SCT050CB BKN250
     FM290200 VRB03KT P6SM FEW060 BKN250
      TEMPO 2909/2913 00000KT 5SM BR
     FM291700 31006KT P6SM FEW040=

USA.gov is the U.S. government's official web portal to all federal, state and local government web resources and services.